Tor Futura — OZZE2 — position and weather

sailwx.info

Track history (hours):
 
Tides and Currents Weather Stations Pressure Air Temp Water Temp Dewpoint Dewpoint Depression Visibility Wind Speed Wind Dir Waves Ship Positions

Tor Futura

Last reported at 2018-Feb-17 22:00 UTC. Time now 2018-Feb-18 07:15 UTC.
Position N 55°27' E 016°08'.

Length 183.1 m; beam 25.2 m; draft 7.8 m.

Type: Ship. MMSI: 219927000.

Date/timePositionNaut miles runAvg speedWind from/ knotsBaromVisibWave heightAir tempDewpointWater temp
2018-Feb-17 22:00N 55°27' E 016°08'715.2
2018-Feb-17 21:30N 55°26' E 015°55'815.3
2018-Feb-17 21:01N 55°26' E 015°41'815.2
2018-Feb-17 20:31N 55°25' E 015°28'815.4
2018-Feb-17 20:00N 55°24' E 015°14'815.5
2018-Feb-17 19:30N 55°23' E 015°01'815.4
2018-Feb-17 19:00N 55°23' E 014°47'714.3
2018-Feb-17 18:30N 55°21' E 014°36'814.9
2018-Feb-17 17:58N 55°15' E 014°26'714.3
2018-Feb-17 17:30N 55°11' E 014°16'1314.7
2018-Feb-17 16:39N 55°11' E 013°54'214.6
2018-Feb-17 16:30N 55°11' E 013°50'915.2
2018-Feb-17 15:56N 55°12' E 013°35'815.2
2018-Feb-17 15:26N 55°13' E 013°22'615.2
2018-Feb-17 15:01N 55°14' E 013°11'815.4
2018-Feb-17 14:31N 55°14' E 012°57'815.3
2018-Feb-17 14:00N 55°17' E 012°44'611.9
2018-Feb-17 13:31N 55°22' E 012°39'714.7
2018-Feb-17 13:00N 55°29' E 012°41'713.9
2018-Feb-17 12:31N 55°36' E 012°42'612.9
2018-Feb-17 12:01N 55°42' E 012°38'1 2.4
2018-Feb-17 11:28N 55°42' E 012°36'0 0.0
2018-Feb-17 10:58N 55°42' E 012°36'0 0.2
2018-Feb-17 10:30N 55°42' E 012°36'3 6.3
2018-Feb-17 10:00N 55°44' E 012°40'713.1
2018-Feb-17 09:30N 55°51' E 012°41'713.5
2018-Feb-17 09:00N 55°57' E 012°40'713.5
2018-Feb-17 08:30N 56°04' E 012°37'714.0
2018-Feb-17 08:00N 56°08' E 012°27'714.3
2018-Feb-17 07:30N 56°11' E 012°15'714.7
2018-Feb-17 07:00N 56°11' E 012°02'714.2
2018-Feb-17 06:30N 56°09' E 011°49'6 0.3
2018-Feb-16 10:32N 56°11' E 011°60'214.9
2018-Feb-16 10:25N 56°11' E 012°03'714.9
2018-Feb-16 09:58N 56°11' E 012°15'613.7
2018-Feb-16 09:30N 56°09' E 012°26'714.3
2018-Feb-16 09:00N 56°05' E 012°36'714.4
2018-Feb-16 08:30N 55°59' E 012°42'815.2
2018-Feb-16 08:00N 55°51' E 012°44'815.5
2018-Feb-16 07:30N 55°44' E 012°40'3 4.9
2018-Feb-16 06:58N 55°42' E 012°36'0 0.0
2018-Feb-16 06:28N 55°42' E 012°36'0 0.0
2018-Feb-16 05:58N 55°42' E 012°36'0 0.8
2018-Feb-16 05:30N 55°42' E 012°36'4 8.6
2018-Feb-16 05:00N 55°39' E 012°41'713.4
2018-Feb-16 04:30N 55°32' E 012°42'714.1
2018-Feb-16 04:01N 55°25' E 012°41'714.0
2018-Feb-16 03:30N 55°18' E 012°41'714.7
2018-Feb-16 03:01N 55°16' E 012°54'815.3
2018-Feb-16 02:30N 55°16' E 013°07'2715.6
2018-Feb-16 00:48N 55°15' E 013°54'1316.1
2018-Feb-16 00:02N 55°14' E 014°16'115.6
2018-Feb-15 23:58N 55°15' E 014°17'715.8
2018-Feb-15 23:30N 55°21' E 014°25'815.4
2018-Feb-15 23:00N 55°26' E 014°34'815.1
2018-Feb-15 22:30N 55°27' E 014°48'816.3
2018-Feb-15 22:00N 55°28' E 015°02'816.1
2018-Feb-15 21:30N 55°28' E 015°16'815.9
2018-Feb-15 20:59N 55°29' E 015°31'816.0
2018-Feb-15 20:30N 55°29' E 015°44'816.1
2018-Feb-15 20:00N 55°29' E 015°58'816.1
2018-Feb-15 19:30N 55°29' E 016°12'2 0.1
2018-Feb-14 15:03N 55°28' E 016°14'1218.5
2018-Feb-14 14:25N 55°27' E 015°54'818.9
2018-Feb-14 14:00N 55°26' E 015°40'918.9
2018-Feb-14 13:30N 55°25' E 015°23'918.8
2018-Feb-14 13:00N 55°25' E 015°07'918.8
2018-Feb-14 12:30N 55°24' E 014°50'917.7
2018-Feb-14 12:00N 55°20' E 014°36'919.0
2018-Feb-14 11:30N 55°14' E 014°24'917.9
2018-Feb-14 11:00N 55°10' E 014°09'1819.0
2018-Feb-14 10:03N 55°12' E 013°38'119.5
2018-Feb-14 10:00N 55°12' E 013°36'1019.2
2018-Feb-14 09:29N 55°13' E 013°19'1019.0
2018-Feb-14 08:59N 55°14' E 013°02'918.5
2018-Feb-14 08:30N 55°16' E 012°47'612.9
2018-Feb-14 08:00N 55°20' E 012°39'816.5
2018-Feb-14 07:30N 55°28' E 012°41'714.5
2018-Feb-14 07:00N 55°35' E 012°42'713.0
2018-Feb-14 06:30N 55°42' E 012°38'2 3.0
2018-Feb-14 06:00N 55°42' E 012°36'0 0.0
2018-Feb-14 05:29N 55°42' E 012°36'0 0.0
2018-Feb-14 05:00N 55°42' E 012°36'1 1.2
2018-Feb-14 04:31N 55°42' E 012°37'611.6
2018-Feb-14 04:00N 55°47' E 012°42'713.8
2018-Feb-14 03:30N 55°54' E 012°39'713.7
2018-Feb-14 03:00N 56°01' E 012°40'713.7
2018-Feb-14 02:31N 56°06' E 012°32'713.9
2018-Feb-14 02:00N 56°10' E 012°21'714.2
2018-Feb-14 01:30N 56°11' E 012°08'1014.0
2018-Feb-14 00:46N 56°10' E 011°50'8 0.3
2018-Feb-12 21:57N 56°11' E 012°05'714.4
2018-Feb-12 21:27N 56°11' E 012°17'613.9
2018-Feb-12 21:00N 56°09' E 012°28'714.5
2018-Feb-12 20:30N 56°04' E 012°38'713.8
2018-Feb-12 20:00N 55°58' E 012°42'713.9
2018-Feb-12 19:30N 55°51' E 012°44'714.0
2018-Feb-12 19:00N 55°44' E 012°40'3 6.8
2018-Feb-12 18:30N 55°42' E 012°36'0 0.0
2018-Feb-12 18:00N 55°42' E 012°36'0 0.0
2018-Feb-12 17:30N 55°42' E 012°36'0 0.0
2018-Feb-12 17:00N 55°42' E 012°36'1 3.0
2018-Feb-12 16:31N 55°43' E 012°38'611.7
2018-Feb-12 16:00N 55°37' E 012°42'510.5
2018-Feb-12 15:30N 55°32' E 012°42'612.4
2018-Feb-12 15:00N 55°26' E 012°42'713.4
2018-Feb-12 14:30N 55°19' E 012°40'612.7
2018-Feb-12 14:00N 55°17' E 012°50'714.5
2018-Feb-12 13:30N 55°16' E 013°03'713.8
2018-Feb-12 13:00N 55°15' E 013°15'2313.8
2018-Feb-12 11:19N 55°14' E 013°56'613.6
2018-Feb-12 10:54N 55°13' E 014°05'714.2
2018-Feb-12 10:26N 55°14' E 014°17'715.4
2018-Feb-12 09:59N 55°19' E 014°25'815.8
2018-Feb-12 09:31N 55°24' E 014°34'815.4
2018-Feb-12 09:01N 55°27' E 014°47'815.8
2018-Feb-12 08:29N 55°27' E 015°02'816.0
2018-Feb-12 08:00N 55°28' E 015°15'816.1
2018-Feb-12 07:31N 55°28' E 015°29'815.8
2018-Feb-12 07:00N 55°29' E 015°43'815.4
2018-Feb-12 06:30N 55°29' E 015°57'815.4
2018-Feb-12 06:00N 55°29' E 016°11'815.9
2018-Feb-12 05:30N 55°30' E 016°25'1016.1
2018-Feb-12 04:54N 55°30' E 016°42'21 0.7
2018-Feb-10 22:03N 55°27' E 016°05'615.6
2018-Feb-10 21:40N 55°26' E 015°54'315.6
2018-Feb-10 21:31N 55°26' E 015°50'815.5
2018-Feb-10 21:01N 55°26' E 015°36'815.7
2018-Feb-10 20:30N 55°25' E 015°22'815.7
2018-Feb-10 20:00N 55°24' E 015°08'815.8
2018-Feb-10 19:30N 55°24' E 014°55'815.8
2018-Feb-10 19:00N 55°23' E 014°41'815.5
2018-Feb-10 18:29N 55°17' E 014°31'817.1
2018-Feb-10 18:00N 55°12' E 014°19'1916.7
2018-Feb-10 16:52N 55°12' E 013°46'1315.8
2018-Feb-10 16:04N 55°13' E 013°24'116.1
2018-Feb-10 15:59N 55°13' E 013°22'816.1
2018-Feb-10 15:30N 55°14' E 013°08'815.9
2018-Feb-10 15:00N 55°15' E 012°55'815.9
2018-Feb-10 14:30N 55°17' E 012°42'713.1
2018-Feb-10 14:01N 55°24' E 012°40'815.4
2018-Feb-10 13:31N 55°31' E 012°42'612.3
2018-Feb-10 13:00N 55°38' E 012°42'510.8
2018-Feb-10 12:30N 55°43' E 012°38'1 2.8
2018-Feb-10 11:59N 55°42' E 012°36'0 0.0
2018-Feb-10 11:29N 55°42' E 012°36'0 0.0
2018-Feb-10 10:59N 55°42' E 012°36'0 0.6
2018-Feb-10 10:30N 55°42' E 012°36'3 6.3
2018-Feb-10 10:00N 55°44' E 012°40'713.3
2018-Feb-10 09:30N 55°51' E 012°41'714.0
2018-Feb-10 09:00N 55°58' E 012°40'713.8
2018-Feb-10 08:30N 56°05' E 012°36'714.2
2018-Feb-10 08:00N 56°09' E 012°26'814.7
2018-Feb-10 07:29N 56°11' E 012°13'1 0.0
2018-Feb-09 10:01N 56°11' E 012°14'713.6
2018-Feb-09 09:30N 56°09' E 012°26'714.8
2018-Feb-09 09:00N 56°05' E 012°37'1514.5
2018-Feb-09 08:00N 55°51' E 012°43'715.0
2018-Feb-09 07:30N 55°44' E 012°39'3 1.3
2018-Feb-09 05:30N 55°42' E 012°36'5 5.0
2018-Feb-09 04:30N 55°38' E 012°42'1312.8
2018-Feb-09 03:30N 55°26' E 012°41'713.8
2018-Feb-09 03:00N 55°19' E 012°41'815.0
2018-Feb-09 02:30N 55°16' E 012°53'816.1
2018-Feb-09 02:00N 55°16' E 013°07'4815.9
2018-Feb-08 23:00N 55°22' E 014°30'816.2
2018-Feb-08 22:30N 55°26' E 014°42'917.1
2018-Feb-08 22:00N 55°27' E 014°57'917.3
2018-Feb-08 21:30N 55°27' E 015°12'917.2
2018-Feb-08 21:00N 55°28' E 015°28'1817.5
2018-Feb-08 20:00N 55°29' E 015°58'917.7
2018-Feb-08 19:30N 55°29' E 016°14'  
Track history (hours):
 
Tides and Currents Weather Stations Pressure Air Temp Water Temp Dewpoint Dewpoint Depression Visibility Wind Speed Wind Dir Waves Ship Positions

Tor Futura

Last reported at 2018-Feb-17 22:00 UTC. Time now 2018-Feb-18 07:15 UTC.
Position N 55°27' E 016°08'.

Length 183.1 m; beam 25.2 m; draft 7.8 m.

Type: Ship. MMSI: 219927000.

Date/timePositionNaut miles runAvg speedWind from/ knotsBaromVisibWave heightAir tempDewpointWater temp
2018-Feb-17 22:00N 55°27' E 016°08'715.2
2018-Feb-17 21:30N 55°26' E 015°55'815.3
2018-Feb-17 21:01N 55°26' E 015°41'815.2
2018-Feb-17 20:31N 55°25' E 015°28'815.4
2018-Feb-17 20:00N 55°24' E 015°14'815.5
2018-Feb-17 19:30N 55°23' E 015°01'815.4
2018-Feb-17 19:00N 55°23' E 014°47'714.3
2018-Feb-17 18:30N 55°21' E 014°36'814.9
2018-Feb-17 17:58N 55°15' E 014°26'714.3
2018-Feb-17 17:30N 55°11' E 014°16'1314.7
2018-Feb-17 16:39N 55°11' E 013°54'214.6
2018-Feb-17 16:30N 55°11' E 013°50'915.2
2018-Feb-17 15:56N 55°12' E 013°35'815.2
2018-Feb-17 15:26N 55°13' E 013°22'615.2
2018-Feb-17 15:01N 55°14' E 013°11'815.4
2018-Feb-17 14:31N 55°14' E 012°57'815.3
2018-Feb-17 14:00N 55°17' E 012°44'611.9
2018-Feb-17 13:31N 55°22' E 012°39'714.7
2018-Feb-17 13:00N 55°29' E 012°41'713.9
2018-Feb-17 12:31N 55°36' E 012°42'612.9
2018-Feb-17 12:01N 55°42' E 012°38'1 2.4
2018-Feb-17 11:28N 55°42' E 012°36'0 0.0
2018-Feb-17 10:58N 55°42' E 012°36'0 0.2
2018-Feb-17 10:30N 55°42' E 012°36'3 6.3
2018-Feb-17 10:00N 55°44' E 012°40'713.1
2018-Feb-17 09:30N 55°51' E 012°41'713.5
2018-Feb-17 09:00N 55°57' E 012°40'713.5
2018-Feb-17 08:30N 56°04' E 012°37'714.0
2018-Feb-17 08:00N 56°08' E 012°27'714.3
2018-Feb-17 07:30N 56°11' E 012°15'714.7
2018-Feb-17 07:00N 56°11' E 012°02'714.2
2018-Feb-17 06:30N 56°09' E 011°49'6 0.3
2018-Feb-16 10:32N 56°11' E 011°60'214.9
2018-Feb-16 10:25N 56°11' E 012°03'714.9
2018-Feb-16 09:58N 56°11' E 012°15'613.7
2018-Feb-16 09:30N 56°09' E 012°26'714.3
2018-Feb-16 09:00N 56°05' E 012°36'714.4
2018-Feb-16 08:30N 55°59' E 012°42'815.2
2018-Feb-16 08:00N 55°51' E 012°44'815.5
2018-Feb-16 07:30N 55°44' E 012°40'3 4.9
2018-Feb-16 06:58N 55°42' E 012°36'0 0.0
2018-Feb-16 06:28N 55°42' E 012°36'0 0.0
2018-Feb-16 05:58N 55°42' E 012°36'0 0.8
2018-Feb-16 05:30N 55°42' E 012°36'4 8.6
2018-Feb-16 05:00N 55°39' E 012°41'713.4
2018-Feb-16 04:30N 55°32' E 012°42'714.1
2018-Feb-16 04:01N 55°25' E 012°41'714.0
2018-Feb-16 03:30N 55°18' E 012°41'714.7
2018-Feb-16 03:01N 55°16' E 012°54'815.3
2018-Feb-16 02:30N 55°16' E 013°07'2715.6
2018-Feb-16 00:48N 55°15' E 013°54'1316.1
2018-Feb-16 00:02N 55°14' E 014°16'115.6
2018-Feb-15 23:58N 55°15' E 014°17'715.8
2018-Feb-15 23:30N 55°21' E 014°25'815.4
2018-Feb-15 23:00N 55°26' E 014°34'815.1
2018-Feb-15 22:30N 55°27' E 014°48'816.3
2018-Feb-15 22:00N 55°28' E 015°02'816.1
2018-Feb-15 21:30N 55°28' E 015°16'815.9
2018-Feb-15 20:59N 55°29' E 015°31'816.0
2018-Feb-15 20:30N 55°29' E 015°44'816.1
2018-Feb-15 20:00N 55°29' E 015°58'816.1
2018-Feb-15 19:30N 55°29' E 016°12'2 0.1
2018-Feb-14 15:03N 55°28' E 016°14'1218.5
2018-Feb-14 14:25N 55°27' E 015°54'818.9
2018-Feb-14 14:00N 55°26' E 015°40'918.9
2018-Feb-14 13:30N 55°25' E 015°23'918.8
2018-Feb-14 13:00N 55°25' E 015°07'918.8
2018-Feb-14 12:30N 55°24' E 014°50'917.7
2018-Feb-14 12:00N 55°20' E 014°36'919.0
2018-Feb-14 11:30N 55°14' E 014°24'917.9
2018-Feb-14 11:00N 55°10' E 014°09'1819.0
2018-Feb-14 10:03N 55°12' E 013°38'119.5
2018-Feb-14 10:00N 55°12' E 013°36'1019.2
2018-Feb-14 09:29N 55°13' E 013°19'1019.0
2018-Feb-14 08:59N 55°14' E 013°02'918.5
2018-Feb-14 08:30N 55°16' E 012°47'612.9
2018-Feb-14 08:00N 55°20' E 012°39'816.5
2018-Feb-14 07:30N 55°28' E 012°41'714.5
2018-Feb-14 07:00N 55°35' E 012°42'713.0
2018-Feb-14 06:30N 55°42' E 012°38'2 3.0
2018-Feb-14 06:00N 55°42' E 012°36'0 0.0
2018-Feb-14 05:29N 55°42' E 012°36'0 0.0
2018-Feb-14 05:00N 55°42' E 012°36'1 1.2
2018-Feb-14 04:31N 55°42' E 012°37'611.6
2018-Feb-14 04:00N 55°47' E 012°42'713.8
2018-Feb-14 03:30N 55°54' E 012°39'713.7
2018-Feb-14 03:00N 56°01' E 012°40'713.7
2018-Feb-14 02:31N 56°06' E 012°32'713.9
2018-Feb-14 02:00N 56°10' E 012°21'714.2
2018-Feb-14 01:30N 56°11' E 012°08'1014.0
2018-Feb-14 00:46N 56°10' E 011°50'8 0.3
2018-Feb-12 21:57N 56°11' E 012°05'714.4
2018-Feb-12 21:27N 56°11' E 012°17'613.9
2018-Feb-12 21:00N 56°09' E 012°28'714.5
2018-Feb-12 20:30N 56°04' E 012°38'713.8
2018-Feb-12 20:00N 55°58' E 012°42'713.9
2018-Feb-12 19:30N 55°51' E 012°44'714.0
2018-Feb-12 19:00N 55°44' E 012°40'3 6.8
2018-Feb-12 18:30N 55°42' E 012°36'0 0.0
2018-Feb-12 18:00N 55°42' E 012°36'0 0.0
2018-Feb-12 17:30N 55°42' E 012°36'0 0.0
2018-Feb-12 17:00N 55°42' E 012°36'1 3.0
2018-Feb-12 16:31N 55°43' E 012°38'611.7
2018-Feb-12 16:00N 55°37' E 012°42'510.5
2018-Feb-12 15:30N 55°32' E 012°42'612.4
2018-Feb-12 15:00N 55°26' E 012°42'713.4
2018-Feb-12 14:30N 55°19' E 012°40'612.7
2018-Feb-12 14:00N 55°17' E 012°50'714.5
2018-Feb-12 13:30N 55°16' E 013°03'713.8
2018-Feb-12 13:00N 55°15' E 013°15'2313.8
2018-Feb-12 11:19N 55°14' E 013°56'613.6
2018-Feb-12 10:54N 55°13' E 014°05'714.2
2018-Feb-12 10:26N 55°14' E 014°17'715.4
2018-Feb-12 09:59N 55°19' E 014°25'815.8
2018-Feb-12 09:31N 55°24' E 014°34'815.4
2018-Feb-12 09:01N 55°27' E 014°47'815.8
2018-Feb-12 08:29N 55°27' E 015°02'816.0
2018-Feb-12 08:00N 55°28' E 015°15'816.1
2018-Feb-12 07:31N 55°28' E 015°29'815.8
2018-Feb-12 07:00N 55°29' E 015°43'815.4
2018-Feb-12 06:30N 55°29' E 015°57'815.4
2018-Feb-12 06:00N 55°29' E 016°11'815.9
2018-Feb-12 05:30N 55°30' E 016°25'1016.1
2018-Feb-12 04:54N 55°30' E 016°42'21 0.7
2018-Feb-10 22:03N 55°27' E 016°05'615.6
2018-Feb-10 21:40N 55°26' E 015°54'315.6
2018-Feb-10 21:31N 55°26' E 015°50'815.5
2018-Feb-10 21:01N 55°26' E 015°36'815.7
2018-Feb-10 20:30N 55°25' E 015°22'815.7
2018-Feb-10 20:00N 55°24' E 015°08'815.8
2018-Feb-10 19:30N 55°24' E 014°55'815.8
2018-Feb-10 19:00N 55°23' E 014°41'815.5
2018-Feb-10 18:29N 55°17' E 014°31'817.1
2018-Feb-10 18:00N 55°12' E 014°19'1916.7
2018-Feb-10 16:52N 55°12' E 013°46'1315.8
2018-Feb-10 16:04N 55°13' E 013°24'116.1
2018-Feb-10 15:59N 55°13' E 013°22'816.1
2018-Feb-10 15:30N 55°14' E 013°08'815.9
2018-Feb-10 15:00N 55°15' E 012°55'815.9
2018-Feb-10 14:30N 55°17' E 012°42'713.1
2018-Feb-10 14:01N 55°24' E 012°40'815.4
2018-Feb-10 13:31N 55°31' E 012°42'612.3
2018-Feb-10 13:00N 55°38' E 012°42'510.8
2018-Feb-10 12:30N 55°43' E 012°38'1 2.8
2018-Feb-10 11:59N 55°42' E 012°36'0 0.0
2018-Feb-10 11:29N 55°42' E 012°36'0 0.0
2018-Feb-10 10:59N 55°42' E 012°36'0 0.6
2018-Feb-10 10:30N 55°42' E 012°36'3 6.3
2018-Feb-10 10:00N 55°44' E 012°40'713.3
2018-Feb-10 09:30N 55°51' E 012°41'714.0
2018-Feb-10 09:00N 55°58' E 012°40'713.8
2018-Feb-10 08:30N 56°05' E 012°36'714.2
2018-Feb-10 08:00N 56°09' E 012°26'814.7
2018-Feb-10 07:29N 56°11' E 012°13'1 0.0
2018-Feb-09 10:01N 56°11' E 012°14'713.6
2018-Feb-09 09:30N 56°09' E 012°26'714.8
2018-Feb-09 09:00N 56°05' E 012°37'1514.5
2018-Feb-09 08:00N 55°51' E 012°43'715.0
2018-Feb-09 07:30N 55°44' E 012°39'3 1.3
2018-Feb-09 05:30N 55°42' E 012°36'5 5.0
2018-Feb-09 04:30N 55°38' E 012°42'1312.8
2018-Feb-09 03:30N 55°26' E 012°41'713.8
2018-Feb-09 03:00N 55°19' E 012°41'815.0
2018-Feb-09 02:30N 55°16' E 012°53'816.1
2018-Feb-09 02:00N 55°16' E 013°07'4815.9
2018-Feb-08 23:00N 55°22' E 014°30'816.2
2018-Feb-08 22:30N 55°26' E 014°42'917.1
2018-Feb-08 22:00N 55°27' E 014°57'917.3
2018-Feb-08 21:30N 55°27' E 015°12'917.2
2018-Feb-08 21:00N 55°28' E 015°28'1817.5
2018-Feb-08 20:00N 55°29' E 015°58'917.7
2018-Feb-08 19:30N 55°29' E 016°14'  

Dump ship's entire track history